sensor_id;sensor_type;location;lat;lon;timestamp;P1;durP1;ratioP1;P2;durP2;ratioP2
48679;SDS011;34475;51.658;5.634;2023-03-18T00:00:00;0.6;;;0.6;;
48679;SDS011;34475;51.658;5.634;2023-03-18T00:01:03;0.6;;;0.6;;
48679;SDS011;34475;51.658;5.634;2023-03-18T00:02:01;0.6;;;0.6;;
48679;SDS011;34475;51.658;5.634;2023-03-18T00:03:00;0.6;;;0.6;;
48679;SDS011;34475;51.658;5.634;2023-03-18T00:04:01;0.6;;;0.6;;
48679;SDS011;34475;51.658;5.634;2023-03-18T00:05:00;0.6;;;0.6;;
48679;SDS011;34475;51.658;5.634;2023-03-18T00:07:00;0.6;;;0.6;;
48679;SDS011;34475;51.658;5.634;2023-03-18T00:08:02;0.6;;;0.6;;
48679;SDS011;34475;51.658;5.634;2023-03-18T00:09:01;0.6;;;0.6;;
48679;SDS011;34475;51.658;5.634;2023-03-18T00:10:01;0.6;;;0.6;;
48679;SDS011;34475;51.658;5.634;2023-03-18T00:11:01;0.6;;;0.6;;
48679;SDS011;34475;51.658;5.634;2023-03-18T00:12:00;0.5;;;0.5;;
48679;SDS011;34475;51.658;5.634;2023-03-18T00:13:01;0.5;;;0.5;;
48679;SDS011;34475;51.658;5.634;2023-03-18T00:14:00;0.5;;;0.5;;
48679;SDS011;34475;51.658;5.634;2023-03-18T00:15:01;0.5;;;0.5;;
48679;SDS011;34475;51.658;5.634;2023-03-18T00:16:01;0.5;;;0.5;;
48679;SDS011;34475;51.658;5.634;2023-03-18T00:17:00;0.5;;;0.5;;
48679;SDS011;34475;51.658;5.634;2023-03-18T00:18:00;0.5;;;0.5;;
48679;SDS011;34475;51.658;5.634;2023-03-18T00:19:01;0.5;;;0.5;;
48679;SDS011;34475;51.658;5.634;2023-03-18T00:20:05;0.5;;;0.5;;
48679;SDS011;34475;51.658;5.634;2023-03-18T00:21:01;0.5;;;0.5;;
48679;SDS011;34475;51.658;5.634;2023-03-18T00:22:00;0.5;;;0.5;;
48679;SDS011;34475;51.658;5.634;2023-03-18T00:23:00;0.5;;;0.5;;
48679;SDS011;34475;51.658;5.634;2023-03-18T00:24:00;0.5;;;0.5;;
48679;SDS011;34475;51.658;5.634;2023-03-18T00:25:00;0.5;;;0.5;;
48679;SDS011;34475;51.658;5.634;2023-03-18T00:26:01;0.5;;;0.5;;
48679;SDS011;34475;51.658;5.634;2023-03-18T00:27:00;0.5;;;0.5;;
48679;SDS011;34475;51.658;5.634;2023-03-18T00:28:00;0.5;;;0.5;;
48679;SDS011;34475;51.658;5.634;2023-03-18T00:29:00;0.5;;;0.5;;
48679;SDS011;34475;51.658;5.634;2023-03-18T00:30:01;0.5;;;0.5;;
48679;SDS011;34475;51.658;5.634;2023-03-18T00:31:03;0.5;;;0.5;;
48679;SDS011;34475;51.658;5.634;2023-03-18T00:32:00;0.7;;;0.7;;
48679;SDS011;34475;51.658;5.634;2023-03-18T00:33:00;0.7;;;0.7;;
48679;SDS011;34475;51.658;5.634;2023-03-18T00:34:00;0.7;;;0.7;;
48679;SDS011;34475;51.658;5.634;2023-03-18T00:35:01;0.7;;;0.7;;
48679;SDS011;34475;51.658;5.634;2023-03-18T00:36:00;0.7;;;0.7;;
48679;SDS011;34475;51.658;5.634;2023-03-18T00:37:00;0.7;;;0.7;;
48679;SDS011;34475;51.658;5.634;2023-03-18T00:38:02;0.7;;;0.7;;
48679;SDS011;34475;51.658;5.634;2023-03-18T00:39:02;0.7;;;0.7;;
48679;SDS011;34475;51.658;5.634;2023-03-18T00:40:06;0.7;;;0.7;;
48679;SDS011;34475;51.658;5.634;2023-03-18T00:41:03;0.7;;;0.7;;
48679;SDS011;34475;51.658;5.634;2023-03-18T00:42:09;0.7;;;0.7;;
48679;SDS011;34475;51.658;5.634;2023-03-18T00:43:06;0.7;;;0.7;;
48679;SDS011;34475;51.658;5.634;2023-03-18T00:44:00;0.7;;;0.7;;
48679;SDS011;34475;51.658;5.634;2023-03-18T00:45:00;0.7;;;0.7;;
48679;SDS011;34475;51.658;5.634;2023-03-18T00:46:01;0.7;;;0.7;;
48679;SDS011;34475;51.658;5.634;2023-03-18T00:47:00;0.7;;;0.7;;
48679;SDS011;34475;51.658;5.634;2023-03-18T00:48:00;0.7;;;0.7;;
48679;SDS011;34475;51.658;5.634;2023-03-18T00:49:04;0.7;;;0.7;;
48679;SDS011;34475;51.658;5.634;2023-03-18T00:50:00;0.7;;;0.7;;
48679;SDS011;34475;51.658;5.634;2023-03-18T00:51:00;0.7;;;0.7;;
48679;SDS011;34475;51.658;5.634;2023-03-18T00:52:00;0.7;;;0.7;;
48679;SDS011;34475;51.658;5.634;2023-03-18T00:53:00;0.7;;;0.7;;
48679;SDS011;34475;51.658;5.634;2023-03-18T00:54:01;0.7;;;0.7;;
48679;SDS011;34475;51.658;5.634;2023-03-18T00:55:00;0.7;;;0.7;;
48679;SDS011;34475;51.658;5.634;2023-03-18T00:56:00;0.7;;;0.7;;
48679;SDS011;34475;51.658;5.634;2023-03-18T00:57:00;0.7;;;0.7;;
48679;SDS011;34475;51.658;5.634;2023-03-18T00:58:00;0.7;;;0.7;;
48679;SDS011;34475;51.658;5.634;2023-03-18T00:59:01;0.7;;;0.7;;
48679;SDS011;34475;51.658;5.634;2023-03-18T01:00:00;0.7;;;0.7;;
48679;SDS011;34475;51.658;5.634;2023-03-18T01:01:00;0.7;;;0.7;;
48679;SDS011;34475;51.658;5.634;2023-03-18T01:02:00;0.7;;;0.7;;
48679;SDS011;34475;51.658;5.634;2023-03-18T01:03:01;0.7;;;0.7;;
48679;SDS011;34475;51.658;5.634;2023-03-18T01:04:00;0.7;;;0.7;;
48679;SDS011;34475;51.658;5.634;2023-03-18T01:05:00;0.7;;;0.7;;
48679;SDS011;34475;51.658;5.634;2023-03-18T01:06:03;0.7;;;0.7;;
48679;SDS011;34475;51.658;5.634;2023-03-18T01:07:01;0.7;;;0.7;;
48679;SDS011;34475;51.658;5.634;2023-03-18T01:08:02;0.7;;;0.7;;
48679;SDS011;34475;51.658;5.634;2023-03-18T01:09:02;0.7;;;0.7;;
48679;SDS011;34475;51.658;5.634;2023-03-18T01:10:01;0.7;;;0.7;;
48679;SDS011;34475;51.658;5.634;2023-03-18T01:11:00;0.7;;;0.7;;
48679;SDS011;34475;51.658;5.634;2023-03-18T01:12:00;0.7;;;0.7;;
48679;SDS011;34475;51.658;5.634;2023-03-18T01:13:00;0.7;;;0.7;;
48679;SDS011;34475;51.658;5.634;2023-03-18T01:14:00;0.7;;;0.7;;
48679;SDS011;34475;51.658;5.634;2023-03-18T01:15:00;0.7;;;0.7;;
48679;SDS011;34475;51.658;5.634;2023-03-18T01:16:02;0.7;;;0.7;;
48679;SDS011;34475;51.658;5.634;2023-03-18T01:17:01;0.7;;;0.7;;
48679;SDS011;34475;51.658;5.634;2023-03-18T01:18:00;0.7;;;0.7;;
48679;SDS011;34475;51.658;5.634;2023-03-18T01:19:00;0.7;;;0.7;;
48679;SDS011;34475;51.658;5.634;2023-03-18T01:20:02;0.7;;;0.7;;
48679;SDS011;34475;51.658;5.634;2023-03-18T01:21:00;0.7;;;0.7;;
48679;SDS011;34475;51.658;5.634;2023-03-18T01:22:01;0.7;;;0.7;;
48679;SDS011;34475;51.658;5.634;2023-03-18T01:23:00;0.7;;;0.7;;
48679;SDS011;34475;51.658;5.634;2023-03-18T01:24:00;0.7;;;0.7;;
48679;SDS011;34475;51.658;5.634;2023-03-18T01:25:00;0.7;;;0.7;;
48679;SDS011;34475;51.658;5.634;2023-03-18T01:26:01;0.7;;;0.7;;
48679;SDS011;34475;51.658;5.634;2023-03-18T01:27:00;0.7;;;0.7;;
48679;SDS011;34475;51.658;5.634;2023-03-18T01:28:00;0.7;;;0.7;;
48679;SDS011;34475;51.658;5.634;2023-03-18T01:29:01;0.7;;;0.7;;
48679;SDS011;34475;51.658;5.634;2023-03-18T01:30:01;0.7;;;0.7;;
48679;SDS011;34475;51.658;5.634;2023-03-18T01:31:00;0.7;;;0.7;;
48679;SDS011;34475;51.658;5.634;2023-03-18T01:32:01;0.6;;;0.6;;
48679;SDS011;34475;51.658;5.634;2023-03-18T01:33:01;0.6;;;0.6;;
48679;SDS011;34475;51.658;5.634;2023-03-18T01:34:01;0.6;;;0.6;;
48679;SDS011;34475;51.658;5.634;2023-03-18T01:35:00;0.6;;;0.6;;
48679;SDS011;34475;51.658;5.634;2023-03-18T01:36:02;0.6;;;0.6;;
48679;SDS011;34475;51.658;5.634;2023-03-18T01:37:01;0.6;;;0.6;;
48679;SDS011;34475;51.658;5.634;2023-03-18T01:38:02;0.6;;;0.6;;
48679;SDS011;34475;51.658;5.634;2023-03-18T01:39:00;0.6;;;0.6;;
48679;SDS011;34475;51.658;5.634;2023-03-18T01:40:00;0.6;;;0.6;;
48679;SDS011;34475;51.658;5.634;2023-03-18T01:41:01;0.6;;;0.6;;
48679;SDS011;34475;51.658;5.634;2023-03-18T01:42:00;0.6;;;0.6;;
48679;SDS011;34475;51.658;5.634;2023-03-18T01:43:14;0.6;;;0.6;;
48679;SDS011;34475;51.658;5.634;2023-03-18T01:44:01;0.6;;;0.6;;
48679;SDS011;34475;51.658;5.634;2023-03-18T01:45:13;0.6;;;0.6;;
48679;SDS011;34475;51.658;5.634;2023-03-18T01:46:21;0.6;;;0.6;;
48679;SDS011;34475;51.658;5.634;2023-03-18T01:47:00;0.6;;;0.6;;
48679;SDS011;34475;51.658;5.634;2023-03-18T01:48:00;0.6;;;0.6;;
48679;SDS011;34475;51.658;5.634;2023-03-18T01:49:05;0.6;;;0.6;;
48679;SDS011;34475;51.658;5.634;2023-03-18T01:50:00;0.6;;;0.6;;
48679;SDS011;34475;51.658;5.634;2023-03-18T01:51:06;0.6;;;0.6;;
48679;SDS011;34475;51.658;5.634;2023-03-18T01:53:03;0.7;;;0.7;;
48679;SDS011;34475;51.658;5.634;2023-03-18T01:54:02;0.7;;;0.7;;
48679;SDS011;34475;51.658;5.634;2023-03-18T01:55:05;0.7;;;0.7;;
48679;SDS011;34475;51.658;5.634;2023-03-18T01:56:02;0.7;;;0.7;;
48679;SDS011;34475;51.658;5.634;2023-03-18T01:57:01;0.7;;;0.7;;
48679;SDS011;34475;51.658;5.634;2023-03-18T01:58:02;0.7;;;0.7;;
48679;SDS011;34475;51.658;5.634;2023-03-18T01:59:00;0.7;;;0.7;;
48679;SDS011;34475;51.658;5.634;2023-03-18T02:00:01;0.7;;;0.7;;
48679;SDS011;34475;51.658;5.634;2023-03-18T02:01:04;0.7;;;0.7;;
48679;SDS011;34475;51.658;5.634;2023-03-18T02:02:04;0.7;;;0.7;;
48679;SDS011;34475;51.658;5.634;2023-03-18T02:03:00;0.7;;;0.7;;
48679;SDS011;34475;51.658;5.634;2023-03-18T02:04:03;0.7;;;0.7;;
48679;SDS011;34475;51.658;5.634;2023-03-18T02:05:03;0.7;;;0.7;;
48679;SDS011;34475;51.658;5.634;2023-03-18T02:06:00;0.7;;;0.7;;
48679;SDS011;34475;51.658;5.634;2023-03-18T02:07:01;0.7;;;0.7;;
48679;SDS011;34475;51.658;5.634;2023-03-18T02:08:00;0.7;;;0.7;;
48679;SDS011;34475;51.658;5.634;2023-03-18T02:09:00;0.7;;;0.7;;
48679;SDS011;34475;51.658;5.634;2023-03-18T02:10:04;0.7;;;0.7;;
48679;SDS011;34475;51.658;5.634;2023-03-18T02:11:01;0.7;;;0.7;;
48679;SDS011;34475;51.658;5.634;2023-03-18T02:12:00;0.7;;;0.7;;
48679;SDS011;34475;51.658;5.634;2023-03-18T02:13:04;0.7;;;0.7;;
48679;SDS011;34475;51.658;5.634;2023-03-18T02:14:03;0.7;;;0.7;;
48679;SDS011;34475;51.658;5.634;2023-03-18T02:15:02;0.7;;;0.7;;
48679;SDS011;34475;51.658;5.634;2023-03-18T02:16:05;0.7;;;0.7;;
48679;SDS011;34475;51.658;5.634;2023-03-18T02:17:05;0.7;;;0.7;;
48679;SDS011;34475;51.658;5.634;2023-03-18T02:18:07;0.7;;;0.7;;
48679;SDS011;34475;51.658;5.634;2023-03-18T02:19:06;0.7;;;0.7;;
48679;SDS011;34475;51.658;5.634;2023-03-18T02:20:30;0.7;;;0.7;;
48679;SDS011;34475;51.658;5.634;2023-03-18T02:21:14;0.7;;;0.7;;
48679;SDS011;34475;51.658;5.634;2023-03-18T02:24:28;0.7;;;0.7;;
48679;SDS011;34475;51.658;5.634;2023-03-18T02:25:15;0.7;;;0.7;;
48679;SDS011;34475;51.658;5.634;2023-03-18T02:26:09;0.7;;;0.7;;
48679;SDS011;34475;51.658;5.634;2023-03-18T02:28:03;0.7;;;0.7;;
48679;SDS011;34475;51.658;5.634;2023-03-18T02:29:02;0.7;;;0.7;;
48679;SDS011;34475;51.658;5.634;2023-03-18T02:30:08;0.7;;;0.7;;
48679;SDS011;34475;51.658;5.634;2023-03-18T02:31:03;0.7;;;0.7;;
48679;SDS011;34475;51.658;5.634;2023-03-18T02:32:02;0.7;;;0.7;;
48679;SDS011;34475;51.658;5.634;2023-03-18T02:33:01;0.7;;;0.7;;
48679;SDS011;34475;51.658;5.634;2023-03-18T02:34:00;0.7;;;0.7;;
48679;SDS011;34475;51.658;5.634;2023-03-18T02:35:03;0.7;;;0.7;;
48679;SDS011;34475;51.658;5.634;2023-03-18T02:36:04;0.7;;;0.7;;
48679;SDS011;34475;51.658;5.634;2023-03-18T02:37:01;0.7;;;0.7;;
48679;SDS011;34475;51.658;5.634;2023-03-18T02:38:01;0.7;;;0.7;;
48679;SDS011;34475;51.658;5.634;2023-03-18T02:39:02;0.7;;;0.7;;
48679;SDS011;34475;51.658;5.634;2023-03-18T02:41:00;0.7;;;0.7;;
48679;SDS011;34475;51.658;5.634;2023-03-18T02:42:00;0.7;;;0.7;;
48679;SDS011;34475;51.658;5.634;2023-03-18T02:43:26;0.7;;;0.7;;
48679;SDS011;34475;51.658;5.634;2023-03-18T02:44:00;0.7;;;0.7;;
48679;SDS011;34475;51.658;5.634;2023-03-18T02:45:00;0.7;;;0.7;;
48679;SDS011;34475;51.658;5.634;2023-03-18T02:47:03;0.7;;;0.7;;
48679;SDS011;34475;51.658;5.634;2023-03-18T02:48:03;0.7;;;0.7;;
48679;SDS011;34475;51.658;5.634;2023-03-18T02:49:02;0.7;;;0.7;;
48679;SDS011;34475;51.658;5.634;2023-03-18T02:50:01;0.7;;;0.7;;
48679;SDS011;34475;51.658;5.634;2023-03-18T02:51:00;0.7;;;0.7;;
48679;SDS011;34475;51.658;5.634;2023-03-18T02:52:00;1.0;;;1.0;;
48679;SDS011;34475;51.658;5.634;2023-03-18T02:53:03;1.0;;;1.0;;
48679;SDS011;34475;51.658;5.634;2023-03-18T02:54:06;1.0;;;1.0;;
48679;SDS011;34475;51.658;5.634;2023-03-18T02:55:00;1.0;;;1.0;;
48679;SDS011;34475;51.658;5.634;2023-03-18T02:56:01;1.0;;;1.0;;
48679;SDS011;34475;51.658;5.634;2023-03-18T02:57:01;1.0;;;1.0;;
48679;SDS011;34475;51.658;5.634;2023-03-18T02:58:00;1.0;;;1.0;;
48679;SDS011;34475;51.658;5.634;2023-03-18T02:59:00;1.0;;;1.0;;
48679;SDS011;34475;51.658;5.634;2023-03-18T03:00:00;1.0;;;1.0;;
48679;SDS011;34475;51.658;5.634;2023-03-18T03:01:00;1.0;;;1.0;;
48679;SDS011;34475;51.658;5.634;2023-03-18T03:02:01;1.0;;;1.0;;
48679;SDS011;34475;51.658;5.634;2023-03-18T03:03:00;1.0;;;1.0;;
48679;SDS011;34475;51.658;5.634;2023-03-18T03:04:01;1.0;;;1.0;;
48679;SDS011;34475;51.658;5.634;2023-03-18T03:05:01;1.0;;;1.0;;
48679;SDS011;34475;51.658;5.634;2023-03-18T03:06:02;1.0;;;1.0;;
48679;SDS011;34475;51.658;5.634;2023-03-18T03:07:01;1.0;;;1.0;;
48679;SDS011;34475;51.658;5.634;2023-03-18T03:08:01;1.0;;;1.0;;
48679;SDS011;34475;51.658;5.634;2023-03-18T03:09:02;1.0;;;1.0;;
48679;SDS011;34475;51.658;5.634;2023-03-18T03:10:00;1.0;;;1.0;;
48679;SDS011;34475;51.658;5.634;2023-03-18T03:11:02;1.0;;;1.0;;
48679;SDS011;34475;51.658;5.634;2023-03-18T03:12:01;0.7;;;0.7;;
48679;SDS011;34475;51.658;5.634;2023-03-18T03:13:01;0.7;;;0.7;;
48679;SDS011;34475;51.658;5.634;2023-03-18T03:14:00;0.7;;;0.7;;
48679;SDS011;34475;51.658;5.634;2023-03-18T03:15:00;0.7;;;0.7;;
48679;SDS011;34475;51.658;5.634;2023-03-18T03:16:01;0.7;;;0.7;;
48679;SDS011;34475;51.658;5.634;2023-03-18T03:17:00;0.7;;;0.7;;
48679;SDS011;34475;51.658;5.634;2023-03-18T03:18:00;0.7;;;0.7;;
48679;SDS011;34475;51.658;5.634;2023-03-18T03:19:00;0.7;;;0.7;;
48679;SDS011;34475;51.658;5.634;2023-03-18T03:20:01;0.7;;;0.7;;
48679;SDS011;34475;51.658;5.634;2023-03-18T03:21:00;0.7;;;0.7;;
48679;SDS011;34475;51.658;5.634;2023-03-18T03:22:00;0.7;;;0.7;;
48679;SDS011;34475;51.658;5.634;2023-03-18T03:23:01;0.7;;;0.7;;
48679;SDS011;34475;51.658;5.634;2023-03-18T03:24:03;0.7;;;0.7;;
48679;SDS011;34475;51.658;5.634;2023-03-18T03:25:00;0.7;;;0.7;;
48679;SDS011;34475;51.658;5.634;2023-03-18T03:26:00;0.7;;;0.7;;
48679;SDS011;34475;51.658;5.634;2023-03-18T03:27:00;0.7;;;0.7;;
48679;SDS011;34475;51.658;5.634;2023-03-18T03:28:00;0.7;;;0.7;;
48679;SDS011;34475;51.658;5.634;2023-03-18T03:29:01;0.7;;;0.7;;
48679;SDS011;34475;51.658;5.634;2023-03-18T03:30:00;0.7;;;0.7;;
48679;SDS011;34475;51.658;5.634;2023-03-18T03:31:01;0.7;;;0.7;;
48679;SDS011;34475;51.658;5.634;2023-03-18T03:32:01;0.6;;;0.6;;
48679;SDS011;34475;51.658;5.634;2023-03-18T03:33:01;0.6;;;0.6;;
48679;SDS011;34475;51.658;5.634;2023-03-18T03:34:00;0.6;;;0.6;;
48679;SDS011;34475;51.658;5.634;2023-03-18T03:35:00;0.6;;;0.6;;
48679;SDS011;34475;51.658;5.634;2023-03-18T03:36:00;0.6;;;0.6;;
48679;SDS011;34475;51.658;5.634;2023-03-18T03:37:00;0.6;;;0.6;;
48679;SDS011;34475;51.658;5.634;2023-03-18T03:38:00;0.6;;;0.6;;
48679;SDS011;34475;51.658;5.634;2023-03-18T03:39:01;0.6;;;0.6;;
48679;SDS011;34475;51.658;5.634;2023-03-18T03:40:00;0.6;;;0.6;;
48679;SDS011;34475;51.658;5.634;2023-03-18T03:41:01;0.6;;;0.6;;
48679;SDS011;34475;51.658;5.634;2023-03-18T03:42:00;0.6;;;0.6;;
48679;SDS011;34475;51.658;5.634;2023-03-18T03:43:00;0.6;;;0.6;;
48679;SDS011;34475;51.658;5.634;2023-03-18T03:44:00;0.6;;;0.6;;
48679;SDS011;34475;51.658;5.634;2023-03-18T03:45:02;0.6;;;0.6;;
48679;SDS011;34475;51.658;5.634;2023-03-18T03:46:00;0.6;;;0.6;;
48679;SDS011;34475;51.658;5.634;2023-03-18T03:47:00;0.6;;;0.6;;
48679;SDS011;34475;51.658;5.634;2023-03-18T03:48:01;0.6;;;0.6;;
48679;SDS011;34475;51.658;5.634;2023-03-18T03:49:00;0.6;;;0.6;;
48679;SDS011;34475;51.658;5.634;2023-03-18T03:50:01;0.6;;;0.6;;
48679;SDS011;34475;51.658;5.634;2023-03-18T03:51:01;0.6;;;0.6;;
48679;SDS011;34475;51.658;5.634;2023-03-18T03:52:00;0.7;;;0.7;;
48679;SDS011;34475;51.658;5.634;2023-03-18T03:53:01;0.7;;;0.7;;
48679;SDS011;34475;51.658;5.634;2023-03-18T03:54:00;0.7;;;0.7;;
48679;SDS011;34475;51.658;5.634;2023-03-18T03:55:00;0.7;;;0.7;;
48679;SDS011;34475;51.658;5.634;2023-03-18T03:56:00;0.7;;;0.7;;
48679;SDS011;34475;51.658;5.634;2023-03-18T03:57:00;0.7;;;0.7;;
48679;SDS011;34475;51.658;5.634;2023-03-18T03:58:01;0.7;;;0.7;;
48679;SDS011;34475;51.658;5.634;2023-03-18T03:59:00;0.7;;;0.7;;
48679;SDS011;34475;51.658;5.634;2023-03-18T04:00:01;0.7;;;0.7;;
48679;SDS011;34475;51.658;5.634;2023-03-18T04:01:00;0.7;;;0.7;;
48679;SDS011;34475;51.658;5.634;2023-03-18T04:02:00;0.7;;;0.7;;
48679;SDS011;34475;51.658;5.634;2023-03-18T04:03:00;0.7;;;0.7;;
48679;SDS011;34475;51.658;5.634;2023-03-18T04:04:02;0.7;;;0.7;;
48679;SDS011;34475;51.658;5.634;2023-03-18T04:05:01;0.7;;;0.7;;
48679;SDS011;34475;51.658;5.634;2023-03-18T04:06:00;0.7;;;0.7;;
48679;SDS011;34475;51.658;5.634;2023-03-18T04:07:02;0.7;;;0.7;;
48679;SDS011;34475;51.658;5.634;2023-03-18T04:08:00;0.7;;;0.7;;
48679;SDS011;34475;51.658;5.634;2023-03-18T04:09:00;0.7;;;0.7;;
48679;SDS011;34475;51.658;5.634;2023-03-18T04:10:01;0.7;;;0.7;;
48679;SDS011;34475;51.658;5.634;2023-03-18T04:11:03;1.1;;;1.1;;
48679;SDS011;34475;51.658;5.634;2023-03-18T04:12:01;1.1;;;1.1;;
48679;SDS011;34475;51.658;5.634;2023-03-18T04:13:00;1.1;;;1.1;;
48679;SDS011;34475;51.658;5.634;2023-03-18T04:14:00;1.1;;;1.1;;
48679;SDS011;34475;51.658;5.634;2023-03-18T04:15:00;1.1;;;1.1;;
48679;SDS011;34475;51.658;5.634;2023-03-18T04:16:00;1.1;;;1.1;;
48679;SDS011;34475;51.658;5.634;2023-03-18T04:17:00;1.1;;;1.1;;
48679;SDS011;34475;51.658;5.634;2023-03-18T04:18:05;1.1;;;1.1;;
48679;SDS011;34475;51.658;5.634;2023-03-18T04:19:00;1.1;;;1.1;;
48679;SDS011;34475;51.658;5.634;2023-03-18T04:20:01;1.1;;;1.1;;
48679;SDS011;34475;51.658;5.634;2023-03-18T04:21:00;1.1;;;1.1;;
48679;SDS011;34475;51.658;5.634;2023-03-18T04:22:01;1.1;;;1.1;;
48679;SDS011;34475;51.658;5.634;2023-03-18T04:23:01;1.1;;;1.1;;
48679;SDS011;34475;51.658;5.634;2023-03-18T04:24:02;1.1;;;1.1;;
48679;SDS011;34475;51.658;5.634;2023-03-18T04:25:00;1.1;;;1.1;;
48679;SDS011;34475;51.658;5.634;2023-03-18T04:26:00;1.1;;;1.1;;
48679;SDS011;34475;51.658;5.634;2023-03-18T04:27:00;1.1;;;1.1;;
48679;SDS011;34475;51.658;5.634;2023-03-18T04:28:00;1.1;;;1.1;;
48679;SDS011;34475;51.658;5.634;2023-03-18T04:29:00;1.1;;;1.1;;
48679;SDS011;34475;51.658;5.634;2023-03-18T04:30:00;1.1;;;1.1;;
48679;SDS011;34475;51.658;5.634;2023-03-18T04:31:00;0.8;;;0.8;;
48679;SDS011;34475;51.658;5.634;2023-03-18T04:32:00;0.8;;;0.8;;
48679;SDS011;34475;51.658;5.634;2023-03-18T04:33:00;0.8;;;0.8;;
48679;SDS011;34475;51.658;5.634;2023-03-18T04:34:00;0.8;;;0.8;;
48679;SDS011;34475;51.658;5.634;2023-03-18T04:35:00;0.8;;;0.8;;
48679;SDS011;34475;51.658;5.634;2023-03-18T04:36:00;0.8;;;0.8;;
48679;SDS011;34475;51.658;5.634;2023-03-18T04:37:01;0.8;;;0.8;;
48679;SDS011;34475;51.658;5.634;2023-03-18T04:38:00;0.8;;;0.8;;
48679;SDS011;34475;51.658;5.634;2023-03-18T04:39:00;0.8;;;0.8;;
48679;SDS011;34475;51.658;5.634;2023-03-18T04:40:00;0.8;;;0.8;;
48679;SDS011;34475;51.658;5.634;2023-03-18T04:41:00;0.8;;;0.8;;
48679;SDS011;34475;51.658;5.634;2023-03-18T04:42:00;0.8;;;0.8;;
48679;SDS011;34475;51.658;5.634;2023-03-18T04:43:00;0.8;;;0.8;;
48679;SDS011;34475;51.658;5.634;2023-03-18T04:44:00;0.8;;;0.8;;
48679;SDS011;34475;51.658;5.634;2023-03-18T04:45:00;0.8;;;0.8;;
48679;SDS011;34475;51.658;5.634;2023-03-18T04:46:00;0.8;;;0.8;;
48679;SDS011;34475;51.658;5.634;2023-03-18T04:47:00;0.8;;;0.8;;
48679;SDS011;34475;51.658;5.634;2023-03-18T04:48:00;0.8;;;0.8;;
48679;SDS011;34475;51.658;5.634;2023-03-18T04:49:01;0.8;;;0.8;;
48679;SDS011;34475;51.658;5.634;2023-03-18T04:50:01;0.8;;;0.8;;
48679;SDS011;34475;51.658;5.634;2023-03-18T04:51:01;0.9;;;0.9;;
48679;SDS011;34475;51.658;5.634;2023-03-18T04:52:01;0.9;;;0.9;;
48679;SDS011;34475;51.658;5.634;2023-03-18T04:53:00;0.9;;;0.9;;
48679;SDS011;34475;51.658;5.634;2023-03-18T04:54:01;0.9;;;0.9;;
48679;SDS011;34475;51.658;5.634;2023-03-18T04:55:00;0.9;;;0.9;;
48679;SDS011;34475;51.658;5.634;2023-03-18T04:56:01;0.9;;;0.9;;
48679;SDS011;34475;51.658;5.634;2023-03-18T04:57:00;0.9;;;0.9;;
48679;SDS011;34475;51.658;5.634;2023-03-18T04:58:00;0.9;;;0.9;;
48679;SDS011;34475;51.658;5.634;2023-03-18T04:59:00;0.9;;;0.9;;
48679;SDS011;34475;51.658;5.634;2023-03-18T05:00:01;0.9;;;0.9;;
48679;SDS011;34475;51.658;5.634;2023-03-18T05:01:00;0.9;;;0.9;;
48679;SDS011;34475;51.658;5.634;2023-03-18T05:02:00;0.9;;;0.9;;
48679;SDS011;34475;51.658;5.634;2023-03-18T05:03:01;0.9;;;0.9;;
48679;SDS011;34475;51.658;5.634;2023-03-18T05:04:00;0.9;;;0.9;;
48679;SDS011;34475;51.658;5.634;2023-03-18T05:05:00;0.9;;;0.9;;
48679;SDS011;34475;51.658;5.634;2023-03-18T05:06:00;0.9;;;0.9;;
48679;SDS011;34475;51.658;5.634;2023-03-18T05:07:00;0.9;;;0.9;;
48679;SDS011;34475;51.658;5.634;2023-03-18T05:08:00;0.9;;;0.9;;
48679;SDS011;34475;51.658;5.634;2023-03-18T05:09:00;0.9;;;0.9;;
48679;SDS011;34475;51.658;5.634;2023-03-18T05:10:00;0.9;;;0.9;;
48679;SDS011;34475;51.658;5.634;2023-03-18T05:11:00;0.8;;;0.8;;
48679;SDS011;34475;51.658;5.634;2023-03-18T05:12:00;0.8;;;0.8;;
48679;SDS011;34475;51.658;5.634;2023-03-18T05:13:00;0.8;;;0.8;;
48679;SDS011;34475;51.658;5.634;2023-03-18T05:14:00;0.8;;;0.8;;
48679;SDS011;34475;51.658;5.634;2023-03-18T05:15:00;0.8;;;0.8;;
48679;SDS011;34475;51.658;5.634;2023-03-18T05:16:00;0.8;;;0.8;;
48679;SDS011;34475;51.658;5.634;2023-03-18T05:17:01;0.8;;;0.8;;
48679;SDS011;34475;51.658;5.634;2023-03-18T05:18:00;0.8;;;0.8;;
48679;SDS011;34475;51.658;5.634;2023-03-18T05:19:00;0.8;;;0.8;;
48679;SDS011;34475;51.658;5.634;2023-03-18T05:20:00;0.8;;;0.8;;
48679;SDS011;34475;51.658;5.634;2023-03-18T05:21:00;0.8;;;0.8;;
48679;SDS011;34475;51.658;5.634;2023-03-18T05:22:00;0.8;;;0.8;;
48679;SDS011;34475;51.658;5.634;2023-03-18T05:23:00;0.8;;;0.8;;
48679;SDS011;34475;51.658;5.634;2023-03-18T05:24:00;0.8;;;0.8;;
48679;SDS011;34475;51.658;5.634;2023-03-18T05:25:01;0.8;;;0.8;;
48679;SDS011;34475;51.658;5.634;2023-03-18T05:26:01;0.8;;;0.8;;
48679;SDS011;34475;51.658;5.634;2023-03-18T05:27:00;0.8;;;0.8;;
48679;SDS011;34475;51.658;5.634;2023-03-18T05:28:00;0.8;;;0.8;;
48679;SDS011;34475;51.658;5.634;2023-03-18T05:29:00;0.8;;;0.8;;
48679;SDS011;34475;51.658;5.634;2023-03-18T05:30:01;0.8;;;0.8;;
48679;SDS011;34475;51.658;5.634;2023-03-18T05:31:01;1.2;;;1.2;;
48679;SDS011;34475;51.658;5.634;2023-03-18T05:32:00;1.2;;;1.2;;
48679;SDS011;34475;51.658;5.634;2023-03-18T05:33:00;1.2;;;1.2;;
48679;SDS011;34475;51.658;5.634;2023-03-18T05:34:00;1.2;;;1.2;;
48679;SDS011;34475;51.658;5.634;2023-03-18T05:35:00;1.2;;;1.2;;
48679;SDS011;34475;51.658;5.634;2023-03-18T05:36:00;1.2;;;1.2;;
48679;SDS011;34475;51.658;5.634;2023-03-18T05:37:01;1.2;;;1.2;;
48679;SDS011;34475;51.658;5.634;2023-03-18T05:38:00;1.2;;;1.2;;
48679;SDS011;34475;51.658;5.634;2023-03-18T05:39:00;1.2;;;1.2;;
48679;SDS011;34475;51.658;5.634;2023-03-18T05:40:00;1.2;;;1.2;;
48679;SDS011;34475;51.658;5.634;2023-03-18T05:41:00;1.2;;;1.2;;
48679;SDS011;34475;51.658;5.634;2023-03-18T05:42:01;1.2;;;1.2;;
48679;SDS011;34475;51.658;5.634;2023-03-18T05:43:00;1.2;;;1.2;;
48679;SDS011;34475;51.658;5.634;2023-03-18T05:44:00;1.2;;;1.2;;
48679;SDS011;34475;51.658;5.634;2023-03-18T05:45:01;1.2;;;1.2;;
48679;SDS011;34475;51.658;5.634;2023-03-18T05:46:00;1.2;;;1.2;;
48679;SDS011;34475;51.658;5.634;2023-03-18T05:47:01;1.2;;;1.2;;
48679;SDS011;34475;51.658;5.634;2023-03-18T05:48:00;1.2;;;1.2;;
48679;SDS011;34475;51.658;5.634;2023-03-18T05:49:00;1.2;;;1.2;;
48679;SDS011;34475;51.658;5.634;2023-03-18T05:50:01;1.2;;;1.2;;
48679;SDS011;34475;51.658;5.634;2023-03-18T05:51:00;3.5;;;1.4;;
48679;SDS011;34475;51.658;5.634;2023-03-18T05:52:02;3.5;;;1.4;;
48679;SDS011;34475;51.658;5.634;2023-03-18T05:53:01;3.5;;;1.4;;
48679;SDS011;34475;51.658;5.634;2023-03-18T05:54:00;3.5;;;1.4;;
48679;SDS011;34475;51.658;5.634;2023-03-18T05:55:01;3.5;;;1.4;;
48679;SDS011;34475;51.658;5.634;2023-03-18T05:56:00;3.5;;;1.4;;
48679;SDS011;34475;51.658;5.634;2023-03-18T05:57:00;3.5;;;1.4;;
48679;SDS011;34475;51.658;5.634;2023-03-18T05:58:01;3.5;;;1.4;;
48679;SDS011;34475;51.658;5.634;2023-03-18T05:59:00;3.5;;;1.4;;
48679;SDS011;34475;51.658;5.634;2023-03-18T06:00:00;3.5;;;1.4;;
48679;SDS011;34475;51.658;5.634;2023-03-18T06:01:00;3.5;;;1.4;;
48679;SDS011;34475;51.658;5.634;2023-03-18T06:02:00;3.5;;;1.4;;
48679;SDS011;34475;51.658;5.634;2023-03-18T06:03:01;3.5;;;1.4;;
48679;SDS011;34475;51.658;5.634;2023-03-18T06:04:00;3.5;;;1.4;;
48679;SDS011;34475;51.658;5.634;2023-03-18T06:05:00;3.5;;;1.4;;
48679;SDS011;34475;51.658;5.634;2023-03-18T06:06:00;3.5;;;1.4;;
48679;SDS011;34475;51.658;5.634;2023-03-18T06:07:02;3.5;;;1.4;;
48679;SDS011;34475;51.658;5.634;2023-03-18T06:08:02;3.5;;;1.4;;
48679;SDS011;34475;51.658;5.634;2023-03-18T06:09:00;3.5;;;1.4;;
48679;SDS011;34475;51.658;5.634;2023-03-18T06:10:00;3.5;;;1.4;;
48679;SDS011;34475;51.658;5.634;2023-03-18T06:11:00;0.7;;;0.7;;
48679;SDS011;34475;51.658;5.634;2023-03-18T06:12:00;0.7;;;0.7;;
48679;SDS011;34475;51.658;5.634;2023-03-18T06:13:00;0.7;;;0.7;;
48679;SDS011;34475;51.658;5.634;2023-03-18T06:14:00;0.7;;;0.7;;
48679;SDS011;34475;51.658;5.634;2023-03-18T06:15:00;0.7;;;0.7;;
48679;SDS011;34475;51.658;5.634;2023-03-18T06:16:00;0.7;;;0.7;;
48679;SDS011;34475;51.658;5.634;2023-03-18T06:17:00;0.7;;;0.7;;
48679;SDS011;34475;51.658;5.634;2023-03-18T06:18:00;0.7;;;0.7;;
48679;SDS011;34475;51.658;5.634;2023-03-18T06:19:01;0.7;;;0.7;;